Time;durP1;ratioP1;P1;durP2;ratioP2;P2;SDS_P1;SDS_P2;PMS_P1;PMS_P2;Temp;Humidity;BMP_temperature;BMP_pressure;BME280_temperature;BME280_humidity;BME280_pressure;Samples;Min_cycle;Max_cycle;Signal;HPM_P1;HPM_P2
2024/01/19 00:00:43;;;;;;;6.68;4.78;;;21.20;24.80;;;;;;5052765;28;20275;-64
2024/01/19 00:03:10;;;;;;;5.93;4.57;;;21.20;24.80;;;;;;5053022;28;20226;-64
2024/01/19 00:05:37;;;;;;;6.72;4.80;;;21.20;24.80;;;;;;5052966;28;20274;-62
2024/01/19 00:08:04;;;;;;;5.80;4.43;;;21.20;24.80;;;;;;5052227;28;20265;-65
2024/01/19 00:10:32;;;;;;;6.75;4.80;;;21.20;24.80;;;;;;5052752;28;20196;-64
2024/01/19 00:12:59;;;;;;;6.07;4.40;;;21.20;24.80;;;;;;5052984;28;20219;-64
2024/01/19 00:15:26;;;;;;;6.43;4.88;;;21.20;24.80;;;;;;5052109;28;20729;-64
2024/01/19 00:17:55;;;;;;;7.20;5.03;;;21.20;24.80;;;;;;5052690;28;20697;-64
2024/01/19 00:20:21;;;;;;;7.53;4.60;;;21.20;24.80;;;;;;5052593;28;20188;-64
2024/01/19 00:22:48;;;;;;;7.07;5.20;;;21.20;24.80;;;;;;5052214;28;20322;-64
2024/01/19 00:25:15;;;;;;;6.35;4.93;;;21.20;24.80;;;;;;5052336;28;20187;-64
2024/01/19 00:27:42;;;;;;;7.13;5.28;;;21.20;24.80;;;;;;5052728;28;20238;-65
2024/01/19 00:30:10;;;;;;;6.53;4.78;;;21.20;24.80;;;;;;5052225;28;20603;-63
2024/01/19 00:32:37;;;;;;;7.10;5.07;;;21.20;24.80;;;;;;5052622;28;20223;-64
2024/01/19 00:35:06;;;;;;;7.32;5.47;;;21.20;24.80;;;;;;5052499;28;20238;-64
2024/01/19 00:37:33;;;;;;;6.47;4.93;;;21.20;24.80;;;;;;5051986;28;20304;-63
2024/01/19 00:40:00;;;;;;;6.95;5.20;;;21.20;24.80;;;;;;5052018;28;20198;-64
2024/01/19 00:42:27;;;;;;;7.38;5.30;;;21.10;24.70;;;;;;5052189;28;20231;-64
2024/01/19 00:44:54;;;;;;;6.25;5.20;;;21.10;24.70;;;;;;5052162;28;20231;-64
2024/01/19 00:47:21;;;;;;;7.32;5.43;;;21.20;24.80;;;;;;5052299;28;20302;-64
2024/01/19 00:49:48;;;;;;;7.53;5.25;;;21.10;24.70;;;;;;5052259;28;20196;-64
2024/01/19 00:52:16;;;;;;;7.28;5.25;;;21.10;24.70;;;;;;5052173;28;20215;-64
2024/01/19 00:54:44;;;;;;;7.28;5.30;;;21.10;24.70;;;;;;5051594;28;20775;-64
2024/01/19 00:57:11;;;;;;;7.75;5.15;;;21.10;24.70;;;;;;5052344;28;20251;-64
2024/01/19 00:59:38;;;;;;;7.50;5.75;;;21.20;24.80;;;;;;5052077;28;20187;-64
2024/01/19 01:02:04;;;;;;;8.55;5.78;;;21.10;24.70;;;;;;5051664;28;20246;-64
2024/01/19 01:04:31;;;;;;;7.65;5.82;;;21.10;24.70;;;;;;5052420;28;20282;-64
2024/01/19 01:06:58;;;;;;;7.28;5.80;;;21.10;24.70;;;;;;5052214;28;20307;-63
2024/01/19 01:09:26;;;;;;;6.63;5.40;;;21.10;24.70;;;;;;5051331;28;20314;-64
2024/01/19 01:11:53;;;;;;;8.60;6.00;;;21.10;24.70;;;;;;5050878;28;20531;-64
2024/01/19 01:14:20;;;;;;;7.43;5.90;;;21.10;24.70;;;;;;5051411;28;20210;-63
2024/01/19 01:16:47;;;;;;;8.05;5.30;;;21.10;24.60;;;;;;5051738;28;20215;-64
2024/01/19 01:19:14;;;;;;;7.38;5.78;;;21.10;24.60;;;;;;5052138;28;20274;-64
2024/01/19 01:21:41;;;;;;;8.15;5.90;;;21.10;24.60;;;;;;5052027;28;20215;-64
2024/01/19 01:24:08;;;;;;;7.53;6.00;;;21.10;24.60;;;;;;5051605;28;20219;-63
2024/01/19 01:26:36;;;;;;;6.50;5.32;;;21.10;24.70;;;;;;5051966;28;20249;-64
2024/01/19 01:29:04;;;;;;;7.82;5.72;;;21.10;24.60;;;;;;5051608;28;20184;-64
2024/01/19 01:31:31;;;;;;;8.43;5.65;;;21.10;24.70;;;;;;5051261;28;20303;-64
2024/01/19 01:33:58;;;;;;;8.98;6.32;;;21.10;24.70;;;;;;5051883;28;20192;-64
2024/01/19 01:36:25;;;;;;;7.80;5.78;;;21.10;24.60;;;;;;5051833;28;20215;-65
2024/01/19 01:38:52;;;;;;;8.63;5.85;;;21.10;24.60;;;;;;5051154;28;20649;-64
2024/01/19 01:41:19;;;;;;;8.13;6.10;;;21.10;24.60;;;;;;5051779;28;20238;-64
2024/01/19 01:43:47;;;;;;;8.25;6.50;;;21.10;24.70;;;;;;5051731;28;20226;-65
2024/01/19 01:46:14;;;;;;;8.07;6.38;;;21.10;24.60;;;;;;5051440;28;20230;-64
2024/01/19 01:48:41;;;;;;;8.25;6.20;;;21.10;24.70;;;;;;5051706;28;20192;-64
2024/01/19 01:51:10;;;;;;;7.93;6.07;;;21.10;25.10;;;;;;5051740;28;20277;-64
2024/01/19 01:53:37;;;;;;;9.90;6.43;;;21.10;24.50;;;;;;5054944;28;20188;-64
2024/01/19 01:56:05;;;;;;;7.20;5.85;;;21.10;24.60;;;;;;5055283;28;20184;-63
2024/01/19 01:58:32;;;;;;;7.22;6.13;;;21.10;24.60;;;;;;5054935;28;20646;-64
2024/01/19 02:01:01;;;;;;;7.43;5.90;;;21.10;25.10;;;;;;5054599;28;20187;-65
2024/01/19 02:03:28;;;;;;;9.07;6.38;;;21.10;24.60;;;;;;5055068;28;20216;-64
2024/01/19 02:05:54;;;;;;;7.63;5.95;;;21.10;24.60;;;;;;5054742;28;20192;-62
2024/01/19 02:08:22;;;;;;;10.73;6.18;;;21.10;24.50;;;;;;5054323;28;20318;-64
2024/01/19 02:10:48;;;;;;;8.95;6.45;;;21.10;24.50;;;;;;5055038;28;20200;-62
2024/01/19 02:13:17;;;;;;;9.65;6.38;;;21.10;24.60;;;;;;5055040;28;20202;-63
2024/01/19 02:15:44;;;;;;;10.45;6.75;;;21.10;24.50;;;;;;5054684;28;20222;-64
2024/01/19 02:18:13;;;;;;;8.27;6.30;;;21.10;24.60;;;;;;5055072;28;20215;-58
2024/01/19 02:20:40;;;;;;;7.53;5.95;;;21.10;24.60;;;;;;5054977;28;20195;-63
2024/01/19 02:23:13;;;;;;;8.48;6.60;;;21.10;24.50;;;;;;5054551;28;20235;-63
2024/01/19 02:25:41;;;;;;;9.10;6.57;;;21.10;24.50;;;;;;5054800;28;20514;-64
2024/01/19 02:28:08;;;;;;;8.10;6.28;;;21.10;24.50;;;;;;5055166;28;20322;-61
2024/01/19 02:30:36;;;;;;;8.85;6.60;;;21.10;25.10;;;;;;5054345;28;20313;-64
2024/01/19 02:33:04;;;;;;;12.07;6.25;;;21.10;24.60;;;;;;5054370;28;20254;-63
2024/01/19 02:35:31;;;;;;;8.05;6.60;;;21.10;24.60;;;;;;5054536;28;20194;-65
2024/01/19 02:37:58;;;;;;;8.35;6.05;;;21.10;24.60;;;;;;5054268;28;20306;-63
2024/01/19 02:40:25;;;;;;;8.73;6.47;;;21.10;24.60;;;;;;5054539;28;20194;-64
2024/01/19 02:42:53;;;;;;;9.98;6.50;;;21.10;25.00;;;;;;5054827;28;20307;-63
2024/01/19 02:45:20;;;;;;;8.30;6.03;;;21.10;24.50;;;;;;5054080;28;20202;-61
2024/01/19 02:47:46;;;;;;;9.18;6.72;;;21.10;24.50;;;;;;5053996;28;20221;-64
2024/01/19 02:50:13;;;;;;;8.98;6.38;;;21.10;24.50;;;;;;5054052;28;20195;-64
2024/01/19 02:52:40;;;;;;;8.90;7.00;;;21.10;24.50;;;;;;5053771;28;20226;-64
2024/01/19 02:55:08;;;;;;;10.52;6.80;;;21.10;24.50;;;;;;5054290;28;20266;-63
2024/01/19 02:57:35;;;;;;;8.88;6.57;;;21.10;24.50;;;;;;5054411;28;20274;-64
2024/01/19 03:00:05;;;;;;;9.02;6.57;;;21.10;24.40;;;;;;5053695;28;20206;-64
2024/01/19 03:02:31;;;;;;;9.35;6.40;;;21.10;24.50;;;;;;5054162;28;20220;-64
2024/01/19 03:04:58;;;;;;;8.57;6.63;;;21.10;24.50;;;;;;5052902;28;20237;-64
2024/01/19 03:07:25;;;;;;;8.75;6.22;;;21.10;24.50;;;;;;5053504;28;20318;-64
2024/01/19 03:09:52;;;;;;;8.02;6.50;;;21.10;24.50;;;;;;5054342;28;20192;-64
2024/01/19 03:12:19;;;;;;;9.70;6.72;;;21.10;24.50;;;;;;5053769;28;20705;-63
2024/01/19 03:14:46;;;;;;;8.80;6.47;;;21.10;25.10;;;;;;5053492;28;20283;-64
2024/01/19 03:17:15;;;;;;;8.77;6.78;;;21.10;24.40;;;;;;5053621;28;20591;-65
2024/01/19 03:19:42;;;;;;;9.52;6.85;;;21.00;24.40;;;;;;5053746;28;20188;-64
2024/01/19 03:22:09;;;;;;;8.77;6.47;;;21.10;24.50;;;;;;5053500;28;20251;-64
2024/01/19 03:24:36;;;;;;;8.43;6.40;;;21.10;24.40;;;;;;5053592;28;20625;-64
2024/01/19 03:27:03;;;;;;;9.43;6.40;;;21.00;24.30;;;;;;5053687;28;20306;-65
2024/01/19 03:29:30;;;;;;;7.47;6.07;;;21.00;24.30;;;;;;5052893;28;20557;-63
2024/01/19 03:31:57;;;;;;;9.15;6.30;;;21.00;24.40;;;;;;5053641;28;20319;-64
2024/01/19 03:34:25;;;;;;;8.98;6.45;;;21.00;24.30;;;;;;5053459;28;20198;-64
2024/01/19 03:36:52;;;;;;;7.85;6.43;;;21.00;24.30;;;;;;5052948;28;20255;-63
2024/01/19 03:39:20;;;;;;;7.75;5.80;;;21.00;24.30;;;;;;5053370;28;20191;-64
2024/01/19 03:41:46;;;;;;;8.32;6.15;;;21.00;24.30;;;;;;5053132;28;20639;-64
2024/01/19 03:44:13;;;;;;;8.75;6.22;;;21.00;24.20;;;;;;5052891;28;20226;-64
2024/01/19 03:46:40;;;;;;;9.52;6.30;;;21.00;24.20;;;;;;5053216;28;20225;-64
2024/01/19 03:49:07;;;;;;;8.10;6.50;;;21.00;24.20;;;;;;5053311;28;20215;-64
2024/01/19 03:51:35;;;;;;;7.63;6.20;;;21.00;24.20;;;;;;5052863;28;20215;-64
2024/01/19 03:54:02;;;;;;;9.00;6.63;;;21.00;24.30;;;;;;5053151;28;20287;-64
2024/01/19 03:56:29;;;;;;;8.07;5.70;;;21.00;24.20;;;;;;5052758;28;20653;-65
2024/01/19 03:58:56;;;;;;;7.30;5.97;;;21.00;24.30;;;;;;5052731;28;20207;-64
2024/01/19 04:01:23;;;;;;;8.55;6.10;;;21.10;24.30;;;;;;5052785;28;20218;-64
2024/01/19 04:03:50;;;;;;;7.38;5.80;;;21.00;24.20;;;;;;5052914;28;20571;-64
2024/01/19 04:06:17;;;;;;;7.18;5.93;;;21.00;24.10;;;;;;5052551;28;20184;-64
2024/01/19 04:08:45;;;;;;;7.95;5.78;;;21.00;24.10;;;;;;5052252;28;20326;-64
2024/01/19 04:11:12;;;;;;;8.30;5.70;;;21.00;24.10;;;;;;5052878;28;20203;-64
2024/01/19 04:13:39;;;;;;;8.63;6.05;;;21.00;24.10;;;;;;5052501;28;20271;-65
2024/01/19 04:16:06;;;;;;;7.35;5.57;;;21.00;24.10;;;;;;5052564;28;20188;-64
2024/01/19 04:18:33;;;;;;;9.25;6.30;;;21.00;24.20;;;;;;5052640;28;20270;-64
2024/01/19 04:21:00;;;;;;;7.82;5.72;;;21.00;24.20;;;;;;5052435;28;20628;-64
2024/01/19 04:23:27;;;;;;;8.63;5.80;;;21.00;24.20;;;;;;5052673;28;20254;-64
2024/01/19 04:25:55;;;;;;;7.53;5.68;;;21.00;24.20;;;;;;5052301;28;20196;-65
2024/01/19 04:28:22;;;;;;;7.45;5.60;;;21.00;24.20;;;;;;5052387;28;20220;-64
2024/01/19 04:30:49;;;;;;;7.63;5.57;;;21.00;24.10;;;;;;5052584;28;20271;-63
2024/01/19 04:33:16;;;;;;;10.05;5.88;;;21.00;24.20;;;;;;5052748;28;20214;-66
2024/01/19 04:35:43;;;;;;;8.52;6.00;;;21.00;24.10;;;;;;5052093;28;20267;-65
2024/01/19 04:38:10;;;;;;;7.20;5.78;;;21.00;24.10;;;;;;5052556;28;20216;-64
2024/01/19 04:40:37;;;;;;;9.90;6.38;;;21.00;24.10;;;;;;5052119;28;20194;-64
2024/01/19 04:43:05;;;;;;;6.97;5.13;;;21.00;24.10;;;;;;5052257;28;20215;-64
2024/01/19 04:45:32;;;;;;;7.88;5.93;;;21.00;24.20;;;;;;5052247;28;20222;-64
2024/01/19 04:47:59;;;;;;;6.50;5.68;;;21.00;24.10;;;;;;5052226;28;20224;-63
2024/01/19 04:50:26;;;;;;;6.93;5.80;;;21.00;24.20;;;;;;5051976;28;20270;-64
2024/01/19 04:52:53;;;;;;;7.13;5.28;;;21.00;24.20;;;;;;5052479;28;20300;-64
2024/01/19 04:55:20;;;;;;;7.53;5.85;;;21.00;24.20;;;;;;5051934;28;20634;-63
2024/01/19 04:57:47;;;;;;;9.57;6.15;;;21.00;24.20;;;;;;5051889;28;20226;-64
2024/01/19 05:00:16;;;;;;;7.88;5.65;;;21.00;24.20;;;;;;5052148;28;20188;-64
2024/01/19 05:02:44;;;;;;;6.50;5.00;;;21.00;24.10;;;;;;5052279;28;20303;-64
2024/01/19 05:05:11;;;;;;;8.30;5.20;;;21.00;24.60;;;;;;5051719;28;20223;-63
2024/01/19 05:07:38;;;;;;;7.93;5.45;;;21.00;24.20;;;;;;5051914;28;20227;-64
2024/01/19 05:10:06;;;;;;;7.45;5.22;;;21.00;24.10;;;;;;5052405;28;20621;-64
2024/01/19 05:12:33;;;;;;;6.38;5.07;;;21.00;24.20;;;;;;5051162;28;20647;-63
2024/01/19 05:15:00;;;;;;;6.65;5.05;;;21.00;24.20;;;;;;5052060;28;20192;-63
2024/01/19 05:17:28;;;;;;;6.85;5.45;;;21.00;24.10;;;;;;5052118;28;20211;-64
2024/01/19 05:19:56;;;;;;;6.43;4.95;;;21.00;24.70;;;;;;5051668;28;20202;-64
2024/01/19 05:22:23;;;;;;;7.72;5.32;;;21.00;24.60;;;;;;5052060;28;20215;-64
2024/01/19 05:24:50;;;;;;;6.65;4.90;;;21.00;24.10;;;;;;5051532;28;20611;-64
2024/01/19 05:27:17;;;;;;;8.27;5.47;;;21.00;24.00;;;;;;5052986;28;20688;-65
2024/01/19 05:29:44;;;;;;;6.68;4.80;;;21.00;24.00;;;;;;5055837;28;20619;-64
2024/01/19 05:32:11;;;;;;;7.45;4.97;;;21.00;24.00;;;;;;5055632;28;20215;-64
2024/01/19 05:34:39;;;;;;;6.55;4.90;;;21.00;24.10;;;;;;5055260;28;20198;-65
2024/01/19 05:37:06;;;;;;;7.95;4.90;;;21.00;24.10;;;;;;5055746;28;20220;-64
2024/01/19 05:39:33;;;;;;;6.05;4.65;;;21.00;24.10;;;;;;5055756;28;20196;-64
2024/01/19 05:42:00;;;;;;;6.00;4.40;;;21.00;24.00;;;;;;5055182;28;20709;-63
2024/01/19 05:44:27;;;;;;;6.25;4.90;;;21.00;24.00;;;;;;5055050;28;20696;-65
2024/01/19 05:46:54;;;;;;;7.28;4.75;;;21.00;24.00;;;;;;5055438;28;20587;-64
2024/01/19 05:49:21;;;;;;;7.25;4.70;;;21.00;24.00;;;;;;5055244;28;20610;-64
2024/01/19 05:51:49;;;;;;;6.15;5.10;;;21.00;24.00;;;;;;5055552;28;20587;-65
2024/01/19 05:54:16;;;;;;;7.68;4.88;;;21.00;23.90;;;;;;5055115;28;20666;-64
2024/01/19 05:56:43;;;;;;;6.05;4.60;;;21.00;23.90;;;;;;5055042;28;20215;-64
2024/01/19 05:59:10;;;;;;;6.35;4.55;;;21.00;23.90;;;;;;5055263;28;20202;-64
2024/01/19 06:01:37;;;;;;;6.43;4.82;;;21.00;23.90;;;;;;5054917;28;20689;-65
2024/01/19 06:04:04;;;;;;;6.53;4.50;;;21.10;24.00;;;;;;5054826;28;20216;-65
2024/01/19 06:06:31;;;;;;;5.70;4.50;;;21.00;23.90;;;;;;5055112;28;20279;-63
2024/01/19 06:08:59;;;;;;;6.63;4.72;;;21.10;24.00;;;;;;5055030;28;20232;-64
2024/01/19 06:11:27;;;;;;;5.47;4.43;;;21.00;23.90;;;;;;5054835;28;20371;-64
2024/01/19 06:13:54;;;;;;;6.68;4.78;;;21.00;23.90;;;;;;5055075;28;20195;-64
2024/01/19 06:16:21;;;;;;;6.00;4.82;;;21.00;23.90;;;;;;5054396;28;20245;-64
2024/01/19 06:18:48;;;;;;;6.25;4.75;;;21.00;23.90;;;;;;5054564;28;20265;-65
2024/01/19 06:21:15;;;;;;;5.68;4.07;;;21.00;23.90;;;;;;5054929;28;20184;-64
2024/01/19 06:23:42;;;;;;;5.47;4.20;;;21.00;23.90;;;;;;5055168;28;20219;-65
2024/01/19 06:26:11;;;;;;;5.88;4.15;;;21.00;23.90;;;;;;5054471;28;20196;-64
2024/01/19 06:28:40;;;;;;;6.43;4.35;;;21.00;23.90;;;;;;5054923;28;20308;-64
2024/01/19 06:31:10;;;;;;;5.85;4.40;;;21.00;24.40;;;;;;5054780;28;20270;-65
2024/01/19 06:33:37;;;;;;;6.00;4.88;;;21.00;23.90;;;;;;5054574;28;20219;-65
2024/01/19 06:36:08;;;;;;;5.70;4.53;;;21.00;23.90;;;;;;5054588;28;20295;-65
2024/01/19 06:38:35;;;;;;;8.27;4.90;;;21.00;23.90;;;;;;5053449;28;20300;-64
2024/01/19 06:41:03;;;;;;;8.23;4.95;;;21.00;23.90;;;;;;5054187;28;20283;-62
2024/01/19 06:43:32;;;;;;;5.30;4.57;;;21.00;23.90;;;;;;5054346;28;20220;-63
2024/01/19 06:45:59;;;;;;;5.97;4.65;;;21.00;24.40;;;;;;5054359;28;20221;-65
2024/01/19 06:48:26;;;;;;;5.85;4.53;;;21.10;24.00;;;;;;5053663;28;20335;-62
2024/01/19 06:50:53;;;;;;;5.88;4.60;;;21.10;24.00;;;;;;5054034;28;20668;-62
2024/01/19 06:53:20;;;;;;;5.70;4.53;;;21.00;23.90;;;;;;5054143;28;20788;-65
2024/01/19 06:55:46;;;;;;;4.90;4.10;;;21.00;23.90;;;;;;5054011;28;20616;-65
2024/01/19 06:58:13;;;;;;;4.95;4.18;;;21.10;24.00;;;;;;5054111;28;20670;-62
2024/01/19 07:00:43;;;;;;;6.07;4.78;;;21.00;24.50;;;;;;5054145;28;20271;-65
2024/01/19 07:03:09;;;;;;;6.03;4.57;;;21.00;23.90;;;;;;5053949;28;20215;-61
2024/01/19 07:05:36;;;;;;;5.20;4.38;;;21.00;23.90;;;;;;5054228;28;20218;-64
2024/01/19 07:08:04;;;;;;;5.13;4.15;;;21.00;23.90;;;;;;5053707;28;20314;-64
2024/01/19 07:10:31;;;;;;;5.60;4.38;;;21.00;23.90;;;;;;5053878;28;20278;-65
2024/01/19 07:12:57;;;;;;;5.40;4.28;;;21.00;23.90;;;;;;5054011;28;20212;-65
2024/01/19 07:15:24;;;;;;;6.72;4.60;;;21.00;23.90;;;;;;5053519;28;20565;-64
2024/01/19 07:17:53;;;;;;;6.00;4.50;;;21.00;23.90;;;;;;5053575;28;20220;-63
2024/01/19 07:20:19;;;;;;;5.18;4.07;;;21.00;23.90;;;;;;5053593;28;20227;-63
2024/01/19 07:22:46;;;;;;;4.82;4.10;;;21.00;23.90;;;;;;5053449;28;20623;-63
2024/01/19 07:25:13;;;;;;;5.30;4.22;;;21.00;23.90;;;;;;5053334;28;20242;-64
2024/01/19 07:27:40;;;;;;;5.43;4.30;;;21.00;23.90;;;;;;5053763;28;20228;-64
2024/01/19 07:30:08;;;;;;;5.68;3.78;;;21.00;23.90;;;;;;5053634;28;20227;-65
2024/01/19 07:32:35;;;;;;;6.97;3.97;;;21.00;23.90;;;;;;5053340;28;20250;-64
2024/01/19 07:35:03;;;;;;;4.75;4.07;;;21.00;23.90;;;;;;5053305;28;20567;-63
2024/01/19 07:37:30;;;;;;;4.90;4.40;;;21.00;23.90;;;;;;5051578;28;20222;-64
2024/01/19 07:39:57;;;;;;;6.30;4.35;;;21.00;23.90;;;;;;5051099;28;20187;-56
2024/01/19 07:42:24;;;;;;;6.88;4.47;;;21.00;23.90;;;;;;5052735;28;20223;-63
2024/01/19 07:44:51;;;;;;;4.40;3.65;;;21.00;23.90;;;;;;5040828;28;20600;-64
2024/01/19 07:47:18;;;;;;;5.43;4.13;;;21.00;23.90;;;;;;5051362;28;20227;-63
2024/01/19 07:49:45;;;;;;;5.32;4.07;;;21.00;23.90;;;;;;5053888;28;20266;-63
2024/01/19 07:52:13;;;;;;;5.05;4.00;;;21.00;23.90;;;;;;5053871;28;20250;-57
2024/01/19 07:54:40;;;;;;;5.97;4.25;;;21.00;23.90;;;;;;5041513;28;20202;-65
2024/01/19 07:57:07;;;;;;;6.18;4.13;;;21.00;23.90;;;;;;5048167;28;20705;-60
2024/01/19 07:59:34;;;;;;;5.35;4.25;;;21.00;23.80;;;;;;5045367;28;20192;-57
2024/01/19 08:02:01;;;;;;;5.18;4.30;;;21.00;23.70;;;;;;5044875;28;20216;-64
2024/01/19 08:04:28;;;;;;;6.32;4.57;;;21.10;23.70;;;;;;5049096;28;20203;-65
2024/01/19 08:06:55;;;;;;;7.13;4.45;;;21.10;23.60;;;;;;5047240;28;20287;-60
2024/01/19 08:09:23;;;;;;;5.53;4.63;;;21.10;23.60;;;;;;5042469;28;20538;-62
2024/01/19 08:11:51;;;;;;;6.07;4.63;;;21.10;23.60;;;;;;5043997;28;20302;-60
2024/01/19 08:14:18;;;;;;;8.20;4.40;;;21.10;23.50;;;;;;5050433;28;20283;-66
2024/01/19 08:16:45;;;;;;;6.45;4.65;;;21.20;23.60;;;;;;5066171;28;20289;-64
2024/01/19 08:19:12;;;;;;;5.07;4.15;;;21.20;23.60;;;;;;5058753;28;20271;-63
2024/01/19 08:21:42;;;;;;;5.90;4.55;;;21.20;23.50;;;;;;5051054;28;20284;-58
2024/01/19 08:24:09;;;;;;;6.43;4.93;;;21.20;23.50;;;;;;5050687;28;20302;-58
2024/01/19 08:26:37;;;;;;;5.95;4.20;;;21.30;23.60;;;;;;5051133;28;20336;-56
2024/01/19 08:29:04;;;;;;;8.27;4.32;;;21.30;23.60;;;;;;5057004;28;20286;-61
2024/01/19 08:31:31;;;;;;;6.53;4.35;;;21.30;23.60;;;;;;5047968;28;20188;-62
2024/01/19 08:33:59;;;;;;;6.30;4.57;;;21.30;23.50;;;;;;5050063;28;20306;-63
2024/01/19 08:36:28;;;;;;;9.75;4.70;;;21.30;23.50;;;;;;5050537;28;20195;-62
2024/01/19 08:38:55;;;;;;;6.88;4.65;;;21.30;23.60;;;;;;5050362;28;20587;-62
2024/01/19 08:41:24;;;;;;;8.15;4.50;;;21.20;23.70;;;;;;5049131;28;20283;-52
2024/01/19 08:43:52;;;;;;;8.13;4.85;;;21.20;23.70;;;;;;5050732;28;20306;-61
2024/01/19 08:46:19;;;;;;;6.32;4.30;;;21.20;24.00;;;;;;5050034;28;20211;-57
2024/01/19 08:48:47;;;;;;;7.03;4.30;;;21.20;24.10;;;;;;5050250;28;20298;-58
2024/01/19 08:51:20;;;;;;;5.65;4.38;;;21.20;24.00;;;;;;5049592;28;20650;-63
2024/01/19 08:53:47;;;;;;;8.90;5.00;;;21.10;24.10;;;;;;5050017;28;20905;-61
2024/01/19 08:56:23;;;;;;;6.90;4.97;;;21.10;24.20;;;;;;5049243;28;20909;-54
2024/01/19 08:59:01;;;;;;;6.50;4.63;;;21.20;24.10;;;;;;5047546;28;20219;-59
2024/01/19 09:01:28;;;;;;;6.45;5.03;;;21.20;24.20;;;;;;5049494;28;20245;-63
2024/01/19 09:04:23;;;;;;;8.23;4.63;;;21.20;24.40;;;;;;5054619;28;20219;-65
2024/01/19 09:06:57;;;;;;;8.65;4.60;;;21.20;24.20;;;;;;5054016;28;20228;-57
2024/01/19 09:09:37;;;;;;;6.30;4.50;;;21.20;24.20;;;;;;5044427;28;20223;-53
2024/01/19 09:12:04;;;;;;;7.20;4.88;;;21.20;24.10;;;;;;5048248;28;20206;-64
2024/01/19 09:14:36;;;;;;;5.90;5.10;;;21.30;24.50;;;;;;5053590;28;20231;-54
2024/01/19 09:17:13;;;;;;;6.93;4.90;;;21.30;24.20;;;;;;5052953;28;20672;-60
2024/01/19 09:19:53;;;;;;;7.85;4.53;;;21.30;24.40;;;;;;5052521;28;20221;-59
2024/01/19 09:22:38;;;;;;;5.50;4.30;;;21.30;24.50;;;;;;5052568;28;20245;-54
2024/01/19 09:25:23;;;;;;;;;;;;;;;;;;;;;
2024/01/19 09:27:54;;;;;;;7.13;4.90;;;21.40;24.20;;;;;;5052894;28;20229;-59
2024/01/19 09:30:26;;;;;;;6.32;4.50;;;21.40;24.40;;;;;;5052903;28;20195;-62
2024/01/19 09:32:53;;;;;;;6.38;4.55;;;21.40;24.20;;;;;;5053621;28;20203;-55
2024/01/19 09:35:20;;;;;;;6.78;4.88;;;21.40;24.20;;;;;;5053832;28;20239;-57
2024/01/19 09:38:27;;;;;;;6.65;4.30;;;21.40;24.40;;;;;;5053697;28;20258;-55
2024/01/19 09:41:19;;;;;;;13.52;5.05;;;21.40;24.70;;;;;;5047147;28;20203;-58
2024/01/19 09:43:48;;;;;;;9.20;4.75;;;21.50;24.20;;;;;;5044854;28;20227;-65
2024/01/19 09:46:20;;;;;;;7.30;4.70;;;21.50;24.20;;;;;;5047098;28;20250;-61
2024/01/19 09:49:02;;;;;;;7.00;4.53;;;21.40;24.20;;;;;;5050470;28;20219;-59
2024/01/19 09:51:39;;;;;;;8.80;4.85;;;21.50;24.30;;;;;;5032256;28;20192;-59
2024/01/19 09:54:08;;;;;;;9.48;5.13;;;21.50;24.30;;;;;;5050675;28;20252;-60
2024/01/19 09:56:36;;;;;;;12.07;5.60;;;21.50;24.80;;;;;;5049874;28;20199;-55
2024/01/19 09:59:07;;;;;;;7.50;5.38;;;21.50;24.50;;;;;;5049413;28;20932;-55
2024/01/19 10:01:36;;;;;;;11.95;6.05;;;21.50;24.50;;;;;;5048428;28;20623;-58
2024/01/19 10:04:06;;;;;;;6.28;5.15;;;21.40;24.30;;;;;;5043482;28;20306;-51
2024/01/19 10:06:42;;;;;;;13.10;8.23;;;21.40;24.20;;;;;;5049544;28;20225;-56
2024/01/19 10:09:11;;;;;;;9.65;7.30;;;21.40;24.70;;;;;;5033547;28;20715;-57
2024/01/19 10:11:43;;;;;;;9.50;6.13;;;21.40;25.10;;;;;;5052388;28;20203;-53
2024/01/19 10:14:11;;;;;;;9.35;6.20;;;21.40;25.20;;;;;;5046764;28;20701;-50
2024/01/19 10:16:43;;;;;;;16.17;6.93;;;21.50;25.40;;;;;;5035609;28;20196;-51
2024/01/19 10:19:14;;;;;;;11.82;6.30;;;21.50;25.70;;;;;;5046716;28;20223;-46
2024/01/19 10:21:45;;;;;;;8.45;5.57;;;21.60;25.80;;;;;;5042535;28;20717;-54
2024/01/19 10:24:14;;;;;;;14.70;5.53;;;21.60;26.00;;;;;;5044567;28;20270;-60
2024/01/19 10:26:42;;;;;;;17.55;6.53;;;21.60;26.00;;;;;;5048985;28;20215;-57
2024/01/19 10:29:20;;;;;;;9.57;5.35;;;21.70;26.00;;;;;;5052115;28;20227;-57
2024/01/19 10:31:54;;;;;;;7.88;5.75;;;21.70;26.20;;;;;;5048293;28;20282;-53
2024/01/19 10:34:22;;;;;;;11.23;5.90;;;21.80;26.10;;;;;;5054105;28;20249;-58
2024/01/19 10:36:52;;;;;;;11.05;5.70;;;21.80;26.20;;;;;;5046145;28;20234;-59
2024/01/19 10:39:21;;;;;;;10.88;5.82;;;21.80;26.10;;;;;;5046967;28;20305;-60
2024/01/19 10:41:48;;;;;;;12.45;5.60;;;21.80;26.10;;;;;;5044904;28;20542;-54
2024/01/19 10:44:17;;;;;;;10.73;6.50;;;21.70;25.90;;;;;;5047533;28;20598;-57
2024/01/19 10:46:45;;;;;;;13.77;9.85;;;21.70;25.90;;;;;;5047507;28;20218;-58
2024/01/19 10:49:25;;;;;;;13.25;8.80;;;21.70;26.10;;;;;;5046674;28;20220;-59
2024/01/19 10:51:57;;;;;;;14.35;7.78;;;21.70;26.30;;;;;;5053173;28;20740;-59
2024/01/19 10:54:25;;;;;;;15.32;7.53;;;21.70;26.40;;;;;;5043842;28;20289;-58
2024/01/19 10:57:20;;;;;;;12.27;9.23;;;21.80;26.20;;;;;;5048966;28;20578;-59
2024/01/19 10:59:48;;;;;;;12.38;10.98;;;21.70;26.20;;;;;;5045858;28;20254;-59
2024/01/19 11:02:21;;;;;;;14.85;10.07;;;21.70;26.30;;;;;;5045447;28;20241;-50
2024/01/19 11:04:49;;;;;;;19.02;10.23;;;21.70;26.40;;;;;;5046435;28;20231;-55
2024/01/19 11:07:16;;;;;;;13.32;9.85;;;21.70;26.40;;;;;;5047128;28;20269;-62
2024/01/19 11:09:43;;;;;;;15.25;10.10;;;21.70;26.30;;;;;;5047536;28;20765;-61
2024/01/19 11:12:16;;;;;;;11.07;9.02;;;21.70;26.40;;;;;;5047741;28;20286;-59
2024/01/19 11:14:46;;;;;;;10.82;8.05;;;21.60;26.20;;;;;;5046009;28;20331;-60
2024/01/19 11:17:13;;;;;;;11.60;7.80;;;21.70;25.90;;;;;;5047489;28;20192;-60
2024/01/19 11:19:40;;;;;;;10.48;7.53;;;21.70;25.80;;;;;;5047329;28;20223;-60
2024/01/19 11:22:09;;;;;;;10.10;7.68;;;21.70;25.80;;;;;;5047121;28;20279;-55
2024/01/19 11:24:40;;;;;;;12.68;7.20;;;21.70;25.70;;;;;;5046143;28;20303;-62
2024/01/19 11:27:14;;;;;;;10.15;7.32;;;21.70;25.80;;;;;;5047436;28;20212;-58
2024/01/19 11:29:44;;;;;;;9.30;6.97;;;21.70;25.70;;;;;;5043064;28;20222;-61
2024/01/19 11:32:14;;;;;;;8.10;6.32;;;21.70;25.70;;;;;;5046404;28;20199;-60
2024/01/19 11:34:46;;;;;;;8.00;6.65;;;21.70;25.70;;;;;;5044624;28;20224;-60
2024/01/19 11:37:46;;;;;;;9.13;6.07;;;21.70;25.60;;;;;;5046863;28;20265;-60
2024/01/19 11:40:48;;;;;;;10.20;6.55;;;21.70;25.40;;;;;;5044879;28;20227;-60
2024/01/19 11:43:39;;;;;;;8.15;6.07;;;21.60;25.40;;;;;;4959184;28;20309;-61
2024/01/19 11:46:07;;;;;;;10.60;5.93;;;21.60;25.50;;;;;;4957199;28;20313;-62
2024/01/19 11:48:42;;;;;;;10.23;6.07;;;21.70;25.60;;;;;;4956890;28;20700;-58
2024/01/19 11:51:10;;;;;;;10.80;6.28;;;21.70;25.60;;;;;;4958312;28;20228;-58
2024/01/19 11:53:58;;;;;;;6.57;5.45;;;21.70;25.50;;;;;;4955621;28;20233;-54
2024/01/19 11:56:26;;;;;;;10.20;5.82;;;21.70;25.40;;;;;;4956716;28;20211;-60
2024/01/19 11:58:54;;;;;;;6.78;5.53;;;21.70;25.30;;;;;;4954557;28;20342;-60
2024/01/19 12:01:22;;;;;;;7.30;5.55;;;21.70;25.30;;;;;;4958907;28;20229;-56
2024/01/19 12:03:53;;;;;;;11.05;5.53;;;21.70;25.40;;;;;;4960331;28;20244;-54
2024/01/19 12:06:21;;;;;;;6.90;5.35;;;21.70;25.40;;;;;;4952311;28;20289;-58
2024/01/19 12:09:05;;;;;;;6.43;5.30;;;21.70;25.40;;;;;;4949649;28;20326;-61
2024/01/19 12:11:33;;;;;;;9.05;5.22;;;21.80;25.30;;;;;;4955545;28;20760;-61
2024/01/19 12:14:03;;;;;;;6.38;5.00;;;21.80;25.30;;;;;;4993904;28;20234;-60
2024/01/19 12:16:31;;;;;;;10.32;5.47;;;21.80;25.30;;;;;;5043459;28;20207;-59
2024/01/19 12:18:59;;;;;;;8.20;5.40;;;21.80;25.30;;;;;;5046058;28;20819;-57
2024/01/19 12:21:27;;;;;;;6.70;4.95;;;21.80;25.20;;;;;;5046116;28;20786;-53
2024/01/19 12:23:56;;;;;;;8.68;5.32;;;21.80;25.20;;;;;;5046170;28;20195;-54
2024/01/19 12:26:25;;;;;;;5.38;4.45;;;21.80;25.20;;;;;;5045090;28;20231;-55
2024/01/19 12:28:53;;;;;;;8.15;5.20;;;21.80;25.20;;;;;;5042939;28;20744;-53
2024/01/19 12:31:25;;;;;;;9.40;4.88;;;21.80;25.10;;;;;;5045825;28;20216;-57
2024/01/19 12:33:53;;;;;;;9.25;4.35;;;21.90;25.20;;;;;;5045633;28;20271;-61
2024/01/19 12:36:25;;;;;;;5.68;4.13;;;21.80;25.00;;;;;;5047144;28;20215;-55
2024/01/19 12:39:05;;;;;;;6.20;4.15;;;21.90;25.00;;;;;;5043298;28;20253;-57
2024/01/19 12:41:34;;;;;;;6.75;4.55;;;21.90;24.90;;;;;;5043451;28;20451;-61
2024/01/19 12:44:01;;;;;;;5.50;4.40;;;21.90;24.90;;;;;;5046433;28;20271;-58
2024/01/19 12:46:28;;;;;;;6.05;3.97;;;21.90;24.80;;;;;;5045734;28;20227;-54
2024/01/19 12:48:59;;;;;;;5.47;3.92;;;22.00;24.80;;;;;;5045970;28;20211;-58
2024/01/19 12:51:26;;;;;;;6.75;4.13;;;21.90;24.80;;;;;;5046114;28;20215;-61
2024/01/19 12:53:57;;;;;;;6.72;4.05;;;22.00;24.80;;;;;;5043647;28;20199;-61